createdAt,value
2023-05-10T00:01:36.568Z,2.10
2023-05-10T00:04:05.482Z,2.30
2023-05-10T00:06:33.916Z,2.10
2023-05-10T00:09:01.938Z,2.10
2023-05-10T00:11:29.859Z,2.10
2023-05-10T00:13:57.862Z,2.00
2023-05-10T00:16:25.986Z,2.10
2023-05-10T00:18:54.133Z,2.10
2023-05-10T00:21:23.490Z,2.10
2023-05-10T00:23:51.398Z,2.20
2023-05-10T00:26:19.409Z,2.00
2023-05-10T00:28:49.752Z,2.00
2023-05-10T00:31:18.005Z,2.20
2023-05-10T00:33:46.404Z,2.10
2023-05-10T00:36:14.364Z,2.40
2023-05-10T00:38:42.859Z,2.20
2023-05-10T00:41:11.116Z,2.40
2023-05-10T00:43:40.177Z,2.30
2023-05-10T00:46:09.034Z,2.30
2023-05-10T00:48:37.400Z,2.30
2023-05-10T00:51:05.656Z,2.50
2023-05-10T00:53:35.540Z,2.20
2023-05-10T00:56:04.810Z,2.40
2023-05-10T00:58:33.047Z,2.70
2023-05-10T01:01:02.561Z,2.40
2023-05-10T01:03:31.137Z,2.50
2023-05-10T01:05:59.416Z,2.50
2023-05-10T01:08:28.918Z,2.40
2023-05-10T01:10:58.320Z,2.70
2023-05-10T01:13:38.424Z,2.20
2023-05-10T01:16:08.387Z,2.80
2023-05-10T01:18:42.840Z,2.50
2023-05-10T01:21:39.865Z,2.50
2023-05-10T01:24:38.685Z,2.40
2023-05-10T01:27:47.902Z,2.50
2023-05-10T01:30:37.720Z,2.70
2023-05-10T01:33:17.238Z,2.50
2023-05-10T01:36:12.850Z,2.60
2023-05-10T01:38:54.532Z,2.50
2023-05-10T01:41:52.654Z,2.70
2023-05-10T01:44:38.370Z,2.50
2023-05-10T01:47:15.575Z,2.80
2023-05-10T01:49:51.123Z,2.70
2023-05-10T01:52:34.349Z,2.30
2023-05-10T01:55:17.725Z,2.70
2023-05-10T01:57:52.216Z,2.50
2023-05-10T02:00:21.665Z,2.60
2023-05-10T02:02:54.993Z,2.60
2023-05-10T02:05:25.389Z,2.50
2023-05-10T02:07:55.545Z,2.60
2023-05-10T02:10:23.920Z,2.60
2023-05-10T02:12:54.499Z,2.60
2023-05-10T02:15:27.239Z,2.40
2023-05-10T02:17:58.262Z,2.40
2023-05-10T02:20:27.485Z,2.70
2023-05-10T02:22:58.716Z,3.00
2023-05-10T02:25:28.293Z,2.70
2023-05-10T02:27:58.963Z,2.70
2023-05-10T02:30:28.823Z,2.70
2023-05-10T02:33:00.207Z,2.60
2023-05-10T02:35:31.683Z,2.70
2023-05-10T02:38:01.970Z,2.70
2023-05-10T02:40:33.978Z,2.70
2023-05-10T02:43:05.489Z,2.90
2023-05-10T02:45:36.719Z,2.80
2023-05-10T02:48:05.910Z,2.60
2023-05-10T02:50:36.542Z,2.70
2023-05-10T02:53:12.717Z,2.60
2023-05-10T02:55:47.593Z,2.60
2023-05-10T02:58:15.683Z,2.70
2023-05-10T03:00:43.757Z,2.70
2023-05-10T03:03:13.753Z,2.80
2023-05-10T03:05:42.035Z,3.00
2023-05-10T03:08:10.824Z,2.80
2023-05-10T03:11:37.625Z,2.90
2023-05-10T03:14:26.835Z,3.10
2023-05-10T03:17:11.499Z,2.80
2023-05-10T03:19:54.765Z,2.80
2023-05-10T03:22:42.044Z,2.90
2023-05-10T03:25:13.507Z,2.70
2023-05-10T03:27:45.076Z,2.70
2023-05-10T03:30:14.922Z,2.90
2023-05-10T03:32:43.283Z,2.60
2023-05-10T03:35:14.652Z,3.10
2023-05-10T03:37:42.707Z,2.60
2023-05-10T03:40:11.162Z,2.90
2023-05-10T03:42:40.484Z,2.90
2023-05-10T03:45:10.796Z,3.00
2023-05-10T03:47:38.870Z,2.90
2023-05-10T03:50:08.247Z,2.80
2023-05-10T03:52:36.297Z,2.80
2023-05-10T03:55:05.513Z,3.00
2023-05-10T03:57:33.590Z,2.90
2023-05-10T04:00:01.685Z,2.80
2023-05-10T04:02:31.201Z,3.30
2023-05-10T04:04:59.446Z,2.60
2023-05-10T04:07:27.424Z,2.70
2023-05-10T04:09:55.496Z,3.30
2023-05-10T04:12:24.165Z,3.00
2023-05-10T04:14:52.336Z,2.80
2023-05-10T04:17:20.360Z,2.80
2023-05-10T04:19:48.380Z,2.80
2023-05-10T04:22:17.208Z,2.80
2023-05-10T04:24:45.125Z,2.80
2023-05-10T04:27:13.002Z,2.60
2023-05-10T04:29:41.382Z,3.00
2023-05-10T04:32:11.212Z,3.10
2023-05-10T04:34:39.384Z,2.80
2023-05-10T04:37:08.684Z,3.00
2023-05-10T04:39:36.884Z,2.80
2023-05-10T04:42:06.867Z,2.80
2023-05-10T04:44:35.174Z,2.60
2023-05-10T04:47:04.332Z,2.90
2023-05-10T04:49:32.544Z,2.80
2023-05-10T04:52:00.442Z,2.70
2023-05-10T04:54:28.505Z,3.00
2023-05-10T04:56:56.422Z,2.70
2023-05-10T04:59:24.595Z,2.80
2023-05-10T05:01:52.525Z,2.90
2023-05-10T05:04:20.634Z,2.90
2023-05-10T05:06:48.714Z,2.60
2023-05-10T05:09:17.537Z,2.60
2023-05-10T05:11:45.745Z,2.60
2023-05-10T05:14:13.661Z,2.50
2023-05-10T05:16:41.701Z,2.80
2023-05-10T05:19:09.771Z,2.80
2023-05-10T05:21:37.754Z,2.80
2023-05-10T05:24:07.065Z,2.90
2023-05-10T05:26:35.132Z,3.30
2023-05-10T05:29:04.020Z,3.20
2023-05-10T05:31:31.962Z,3.70
2023-05-10T05:33:59.926Z,3.10
2023-05-10T05:36:28.359Z,3.30
2023-05-10T05:38:56.478Z,3.60
2023-05-10T05:41:25.675Z,3.40
2023-05-10T05:43:53.991Z,3.70
2023-05-10T05:46:21.936Z,3.00
2023-05-10T05:48:50.045Z,3.30
2023-05-10T05:51:18.316Z,3.00
2023-05-10T05:53:46.488Z,3.30
2023-05-10T05:56:14.363Z,3.30
2023-05-10T05:58:42.637Z,3.00
2023-05-10T06:01:11.115Z,3.00
2023-05-10T06:03:39.041Z,3.10
2023-05-10T06:06:07.387Z,3.20
2023-05-10T06:08:35.533Z,3.50
2023-05-10T06:11:05.234Z,3.20
2023-05-10T06:13:34.493Z,3.00
2023-05-10T06:16:04.153Z,3.00
2023-05-10T06:18:32.558Z,3.30
2023-05-10T06:21:01.010Z,2.80
2023-05-10T06:23:28.987Z,3.10
2023-05-10T06:25:57.050Z,3.30
2023-05-10T06:28:25.236Z,2.70
2023-05-10T06:30:53.107Z,2.90
2023-05-10T06:33:21.368Z,3.00
2023-05-10T06:35:49.755Z,2.90
2023-05-10T06:38:18.123Z,3.30
2023-05-10T06:40:46.109Z,2.50
2023-05-10T06:43:15.236Z,3.10
2023-05-10T06:45:44.289Z,3.00
2023-05-10T06:48:12.759Z,2.70
2023-05-10T06:50:40.755Z,3.10
2023-05-10T06:53:09.036Z,3.00
2023-05-10T06:55:37.025Z,3.10
2023-05-10T06:58:04.965Z,2.90
2023-05-10T07:00:33.248Z,2.60
2023-05-10T07:03:01.444Z,2.80
2023-05-10T07:05:30.545Z,2.80
2023-05-10T07:07:58.700Z,2.70
2023-05-10T07:10:26.852Z,2.70
2023-05-10T07:12:54.957Z,2.80
2023-05-10T07:15:24.018Z,2.90
2023-05-10T07:17:53.304Z,2.60
2023-05-10T07:20:21.909Z,2.50
2023-05-10T07:22:49.834Z,2.90
2023-05-10T07:25:18.726Z,2.70
2023-05-10T07:27:47.241Z,2.40
2023-05-10T07:30:16.167Z,2.60
2023-05-10T07:32:44.489Z,2.90
2023-05-10T07:35:12.466Z,2.80
2023-05-10T07:37:40.730Z,2.60
2023-05-10T07:40:10.275Z,2.50
2023-05-10T07:42:39.310Z,2.60
2023-05-10T07:45:08.355Z,2.50
2023-05-10T07:47:36.376Z,2.50
2023-05-10T07:50:06.083Z,2.50
2023-05-10T07:52:34.562Z,2.50
2023-05-10T07:55:02.710Z,2.50
2023-05-10T07:57:32.299Z,2.30
2023-05-10T08:00:00.262Z,2.50
2023-05-10T08:02:28.305Z,2.40
2023-05-10T08:04:57.244Z,2.60
2023-05-10T08:07:26.246Z,2.30
2023-05-10T08:09:54.155Z,2.70
2023-05-10T08:12:22.129Z,2.20
2023-05-10T08:14:50.253Z,2.20
2023-05-10T08:17:19.904Z,2.10
2023-05-10T08:19:48.525Z,2.20
2023-05-10T08:22:16.906Z,2.40
2023-05-10T08:24:45.100Z,2.00
2023-05-10T08:27:13.763Z,2.20
2023-05-10T08:29:49.555Z,2.30
2023-05-10T08:32:19.014Z,1.80
2023-05-10T08:34:46.959Z,2.30
2023-05-10T08:37:15.064Z,2.20
2023-05-10T08:39:43.322Z,1.90
2023-05-10T08:42:12.391Z,1.90
2023-05-10T08:44:41.121Z,2.20
2023-05-10T08:47:11.453Z,2.30
2023-05-10T08:49:41.266Z,2.20
2023-05-10T08:52:15.258Z,2.10
2023-05-10T08:54:45.044Z,2.30
2023-05-10T08:57:13.279Z,2.00
2023-05-10T08:59:41.904Z,2.40
2023-05-10T09:02:15.212Z,1.90
2023-05-10T09:04:44.885Z,2.20
2023-05-10T09:07:13.648Z,2.00
2023-05-10T09:09:41.837Z,2.30
2023-05-10T09:12:12.283Z,2.30
2023-05-10T09:14:41.349Z,1.80
2023-05-10T09:17:11.311Z,2.00
2023-05-10T09:19:39.425Z,1.90
2023-05-10T09:22:08.011Z,1.90
2023-05-10T09:24:36.111Z,1.70
2023-05-10T09:27:04.562Z,2.00
2023-05-10T09:29:44.485Z,1.80
2023-05-10T09:32:13.867Z,1.80
2023-05-10T09:34:43.334Z,2.10
2023-05-10T09:37:11.714Z,1.80
2023-05-10T09:39:39.823Z,1.90
2023-05-10T09:42:10.505Z,1.80
2023-05-10T09:44:39.408Z,1.80
2023-05-10T09:47:07.478Z,1.90
2023-05-10T09:49:36.131Z,2.10
2023-05-10T09:52:07.527Z,2.10
2023-05-10T09:54:36.305Z,1.70
2023-05-10T09:57:04.504Z,2.10
2023-05-10T09:59:36.368Z,1.70
2023-05-10T10:02:05.074Z,1.80
2023-05-10T10:04:33.970Z,2.00
2023-05-10T10:07:05.476Z,2.00
2023-05-10T10:09:36.114Z,2.00
2023-05-10T10:12:05.875Z,2.00
2023-05-10T10:14:35.879Z,1.70
2023-05-10T10:17:08.043Z,1.90
2023-05-10T10:19:38.073Z,1.70
2023-05-10T10:22:07.441Z,2.10
2023-05-10T10:24:35.882Z,1.90
2023-05-10T10:27:44.229Z,1.90
2023-05-10T10:30:38.809Z,1.80
2023-05-10T10:33:32.227Z,1.90
2023-05-10T10:36:03.317Z,1.70
2023-05-10T10:39:00.976Z,1.70
2023-05-10T10:41:56.562Z,1.70
2023-05-10T10:47:13.359Z,1.90
2023-05-10T10:49:41.902Z,1.80
2023-05-10T10:52:30.967Z,1.70
2023-05-10T10:55:24.384Z,1.70
2023-05-10T10:58:05.371Z,1.80
2023-05-10T11:00:38.935Z,1.90
2023-05-10T11:03:19.746Z,1.90
2023-05-10T11:05:53.649Z,1.90
2023-05-10T11:08:32.613Z,1.80
2023-05-10T11:11:01.420Z,1.60
2023-05-10T11:13:36.537Z,1.80
2023-05-10T11:16:23.220Z,1.60
2023-05-10T11:19:08.948Z,1.50
2023-05-10T11:21:51.407Z,1.60
2023-05-10T11:24:28.117Z,1.70
2023-05-10T11:26:57.350Z,1.60
2023-05-10T11:29:27.436Z,1.90
2023-05-10T11:31:59.780Z,1.70
2023-05-10T11:34:36.068Z,1.70
2023-05-10T11:37:04.025Z,1.60
2023-05-10T11:39:34.721Z,1.40
2023-05-10T11:42:03.063Z,1.50
2023-05-10T11:44:33.427Z,1.40
2023-05-10T11:47:02.514Z,1.40
2023-05-10T11:49:31.378Z,1.60
2023-05-10T11:52:09.945Z,1.50
2023-05-10T11:54:38.182Z,1.60
2023-05-10T11:57:06.257Z,1.60
2023-05-10T11:59:34.428Z,1.70
2023-05-10T12:02:04.357Z,1.50
2023-05-10T12:04:32.916Z,1.60
2023-05-10T12:07:01.384Z,1.60
2023-05-10T12:09:42.716Z,1.80
2023-05-10T12:12:18.120Z,1.60
2023-05-10T12:14:51.758Z,1.60
2023-05-10T12:17:19.740Z,1.40
2023-05-10T12:19:48.283Z,1.40
2023-05-10T12:22:16.549Z,1.40
2023-05-10T12:24:46.768Z,1.70
2023-05-10T12:30:01.957Z,1.40
2023-05-10T12:32:41.944Z,1.50
2023-05-10T12:35:10.113Z,1.80
2023-05-10T12:37:40.303Z,1.40
2023-05-10T12:40:12.134Z,1.50
2023-05-10T12:42:41.499Z,1.70
2023-05-10T12:45:10.767Z,1.60
2023-05-10T12:47:42.202Z,1.50
2023-05-10T12:50:12.233Z,1.40
2023-05-10T12:52:40.930Z,1.40
2023-05-10T12:55:09.923Z,1.50
2023-05-10T12:57:37.885Z,1.60
2023-05-10T13:00:08.032Z,1.60
2023-05-10T13:02:36.102Z,1.40
2023-05-10T13:05:05.149Z,1.70
2023-05-10T13:07:33.358Z,1.90
2023-05-10T13:10:01.621Z,1.60
2023-05-10T13:12:30.426Z,1.50
2023-05-10T13:14:58.690Z,1.50
2023-05-10T13:17:27.314Z,1.50
2023-05-10T13:19:56.237Z,1.50
2023-05-10T13:22:36.413Z,1.40
2023-05-10T13:25:08.858Z,1.70
2023-05-10T13:27:36.762Z,1.60
2023-05-10T13:30:06.000Z,1.50
2023-05-10T13:32:35.031Z,1.30
2023-05-10T13:35:06.634Z,1.70
2023-05-10T13:37:38.321Z,1.70
2023-05-10T13:40:07.918Z,1.50
2023-05-10T13:42:36.115Z,1.50
2023-05-10T13:45:05.012Z,1.60
2023-05-10T13:47:33.543Z,1.50
2023-05-10T13:50:01.916Z,1.60
2023-05-10T13:52:29.979Z,1.60
2023-05-10T13:54:58.422Z,1.50
2023-05-10T13:58:16.318Z,1.80
2023-05-10T14:00:44.362Z,1.70
2023-05-10T14:03:12.852Z,1.30
2023-05-10T14:05:41.129Z,1.60
2023-05-10T14:08:11.174Z,1.60
2023-05-10T14:10:39.218Z,1.50
2023-05-10T14:13:07.501Z,1.60
2023-05-10T14:15:35.985Z,1.60
2023-05-10T14:18:04.312Z,1.50
2023-05-10T14:20:34.790Z,1.50
2023-05-10T14:23:02.738Z,1.60
2023-05-10T14:25:30.809Z,1.50
2023-05-10T14:27:58.996Z,1.70
2023-05-10T14:30:27.583Z,2.10
2023-05-10T14:32:55.566Z,1.80
2023-05-10T14:35:24.223Z,2.40
2023-05-10T14:37:52.819Z,2.10
2023-05-10T14:40:22.353Z,2.20
2023-05-10T14:42:51.969Z,2.10
2023-05-10T14:45:21.839Z,2.40
2023-05-10T14:47:53.571Z,2.30
2023-05-10T14:50:36.011Z,2.30
2023-05-10T14:55:01.767Z,2.10
2023-05-10T14:57:36.165Z,2.30
2023-05-10T15:00:05.411Z,2.40
2023-05-10T15:02:34.609Z,2.30
2023-05-10T15:05:03.781Z,2.30
2023-05-10T15:07:47.210Z,2.40
2023-05-10T15:10:16.087Z,2.20
2023-05-10T15:12:44.030Z,2.20
2023-05-10T15:15:12.734Z,2.30
2023-05-10T15:17:41.079Z,2.20
2023-05-10T15:20:10.011Z,2.30
2023-05-10T15:22:39.434Z,2.10
2023-05-10T15:25:08.314Z,2.30
2023-05-10T15:27:36.761Z,2.30
2023-05-10T15:30:05.746Z,2.00
2023-05-10T15:32:33.653Z,2.10
2023-05-10T15:35:01.753Z,2.50
2023-05-10T15:37:29.996Z,2.20
2023-05-10T15:40:04.677Z,2.70
2023-05-10T15:42:33.114Z,2.30
2023-05-10T15:45:01.238Z,2.30
2023-05-10T15:47:32.356Z,2.40
2023-05-10T15:50:01.305Z,2.20
2023-05-10T15:52:29.838Z,2.50
2023-05-10T15:54:58.086Z,2.40
2023-05-10T15:57:25.978Z,2.00
2023-05-10T15:59:54.355Z,2.80
2023-05-10T16:02:23.542Z,2.90
2023-05-10T16:04:51.931Z,3.40
2023-05-10T16:07:20.173Z,3.50
2023-05-10T16:09:49.591Z,3.50
2023-05-10T16:12:17.979Z,3.40
2023-05-10T16:14:46.644Z,3.60
2023-05-10T16:17:15.592Z,3.30
2023-05-10T16:19:44.211Z,3.70
2023-05-10T16:22:12.128Z,4.10
2023-05-10T16:24:40.806Z,3.80
2023-05-10T16:27:08.853Z,3.50
2023-05-10T16:29:37.033Z,4.00
2023-05-10T16:32:05.496Z,3.90
2023-05-10T16:34:33.372Z,3.70
2023-05-10T16:37:01.440Z,3.90
2023-05-10T16:39:29.666Z,3.40
2023-05-10T16:41:57.884Z,3.80
2023-05-10T16:44:26.072Z,4.10
2023-05-10T16:46:55.944Z,4.10
2023-05-10T16:49:26.788Z,3.70
2023-05-10T16:51:55.264Z,3.80
2023-05-10T16:54:23.513Z,4.10
2023-05-10T16:56:51.956Z,3.50
2023-05-10T16:59:20.743Z,3.60
2023-05-10T17:01:49.102Z,3.00
2023-05-10T17:04:17.942Z,4.00
2023-05-10T17:06:46.185Z,3.70
2023-05-10T17:09:14.160Z,3.90
2023-05-10T17:11:42.352Z,3.80
2023-05-10T17:14:11.060Z,3.90
2023-05-10T17:16:39.013Z,3.90
2023-05-10T17:19:07.693Z,3.60
2023-05-10T17:21:36.184Z,3.90
2023-05-10T17:24:04.266Z,3.90
2023-05-10T17:26:32.617Z,3.50
2023-05-10T17:29:00.732Z,3.70
2023-05-10T17:31:28.719Z,3.40
2023-05-10T17:33:56.841Z,3.40
2023-05-10T17:36:25.099Z,3.10
2023-05-10T17:38:53.268Z,3.40
2023-05-10T17:41:21.933Z,3.30
2023-05-10T17:43:49.826Z,3.70
2023-05-10T17:46:17.996Z,3.30
2023-05-10T17:48:46.197Z,3.60
2023-05-10T17:51:15.378Z,3.60
2023-05-10T17:53:43.443Z,3.30
2023-05-10T17:56:11.413Z,3.20
2023-05-10T17:58:39.261Z,3.00
2023-05-10T18:01:07.423Z,3.30
2023-05-10T18:03:36.470Z,3.50
2023-05-10T18:06:05.243Z,2.80
2023-05-10T18:08:34.125Z,3.50
2023-05-10T18:11:02.088Z,3.20
2023-05-10T18:13:29.971Z,3.30
2023-05-10T18:15:58.134Z,3.00
2023-05-10T18:18:26.114Z,3.70
2023-05-10T18:20:57.801Z,3.20
2023-05-10T18:23:26.497Z,3.50
2023-05-10T18:25:54.382Z,3.60
2023-05-10T18:28:24.661Z,2.80
2023-05-10T18:30:52.665Z,3.20
2023-05-10T18:33:20.893Z,3.30
2023-05-10T18:35:48.752Z,3.20
2023-05-10T18:38:16.905Z,3.40
2023-05-10T18:40:46.041Z,3.30
2023-05-10T18:43:14.309Z,3.10
2023-05-10T18:45:44.215Z,3.60
2023-05-10T18:48:12.908Z,3.40
2023-05-10T18:50:40.851Z,3.40
2023-05-10T18:53:09.043Z,3.00
2023-05-10T18:55:36.938Z,3.50
2023-05-10T18:58:04.877Z,3.10
2023-05-10T19:00:33.190Z,3.20
2023-05-10T19:03:01.397Z,2.90
2023-05-10T19:05:31.657Z,3.00
2023-05-10T19:07:59.855Z,3.20
2023-05-10T19:10:28.007Z,2.70
2023-05-10T19:12:57.516Z,2.90
2023-05-10T19:15:25.895Z,3.20
2023-05-10T19:17:55.199Z,3.10
2023-05-10T19:20:25.422Z,3.00
2023-05-10T19:23:09.014Z,2.90
2023-05-10T19:25:39.808Z,2.80
2023-05-10T19:28:11.335Z,3.20
2023-05-10T19:30:39.486Z,2.80
2023-05-10T19:33:09.549Z,3.10
2023-05-10T19:35:39.764Z,3.50
2023-05-10T19:38:08.383Z,3.20
2023-05-10T19:40:37.023Z,3.30
2023-05-10T19:43:05.411Z,2.90
2023-05-10T19:45:36.161Z,3.70
2023-05-10T19:48:07.337Z,3.20
2023-05-10T19:50:38.968Z,3.20
2023-05-10T19:53:07.142Z,2.90
2023-05-10T19:55:36.615Z,2.90
2023-05-10T19:58:05.776Z,3.00
2023-05-10T20:00:34.401Z,2.60
2023-05-10T20:03:09.060Z,2.70
2023-05-10T20:05:38.220Z,3.00
2023-05-10T20:08:08.546Z,2.50
2023-05-10T20:10:39.791Z,2.90
2023-05-10T20:13:08.947Z,2.80
2023-05-10T20:15:37.583Z,2.50
2023-05-10T20:18:06.088Z,2.80
2023-05-10T20:20:34.646Z,2.80
2023-05-10T20:23:02.911Z,2.80
2023-05-10T20:25:31.500Z,2.80
2023-05-10T20:27:59.671Z,2.90
2023-05-10T20:30:27.848Z,2.90
2023-05-10T20:32:56.054Z,2.80
2023-05-10T20:35:24.086Z,2.70
2023-05-10T20:37:52.468Z,3.00
2023-05-10T20:40:20.648Z,3.20
2023-05-10T20:42:49.781Z,2.70
2023-05-10T20:45:17.916Z,2.90
2023-05-10T20:47:46.235Z,2.50
2023-05-10T20:50:14.473Z,2.70
2023-05-10T20:52:42.745Z,2.70
2023-05-10T20:55:10.820Z,2.70
2023-05-10T20:57:39.511Z,2.70
2023-05-10T21:00:09.575Z,2.40
2023-05-10T21:02:37.828Z,2.20
2023-05-10T21:05:06.863Z,2.40
2023-05-10T21:07:34.965Z,2.70
2023-05-10T21:10:03.467Z,2.50
2023-05-10T21:12:32.204Z,2.30
2023-05-10T21:15:00.565Z,2.70
2023-05-10T21:17:28.713Z,2.20
2023-05-10T21:19:56.876Z,2.20
2023-05-10T21:22:25.050Z,2.50
2023-05-10T21:24:53.117Z,2.50
2023-05-10T21:27:21.795Z,2.20
2023-05-10T21:29:49.778Z,2.30
2023-05-10T21:32:17.962Z,2.10
2023-05-10T21:34:46.328Z,2.30
2023-05-10T21:37:17.455Z,2.10
2023-05-10T21:39:45.768Z,2.30
2023-05-10T21:42:14.135Z,2.20
2023-05-10T21:44:42.626Z,2.40
2023-05-10T21:47:11.011Z,2.70
2023-05-10T21:49:39.572Z,2.20
2023-05-10T21:52:07.641Z,2.20
2023-05-10T21:54:37.470Z,2.20
2023-05-10T21:57:06.047Z,2.10
2023-05-10T21:59:34.849Z,2.00
2023-05-10T22:02:02.992Z,2.20
2023-05-10T22:04:31.752Z,2.10
2023-05-10T22:07:01.614Z,2.10
2023-05-10T22:09:30.084Z,2.10
2023-05-10T22:11:58.370Z,2.10
2023-05-10T22:14:27.526Z,1.90
2023-05-10T22:16:57.904Z,2.20
2023-05-10T22:19:26.057Z,2.20
2023-05-10T22:21:54.195Z,2.10
2023-05-10T22:24:22.981Z,2.40
2023-05-10T22:26:56.186Z,2.10
2023-05-10T22:29:25.130Z,1.90
2023-05-10T22:31:53.181Z,2.00
2023-05-10T22:34:21.146Z,2.00
2023-05-10T22:36:50.472Z,1.80
2023-05-10T22:39:18.428Z,2.00
2023-05-10T22:41:46.702Z,1.80
2023-05-10T22:44:14.603Z,2.00
2023-05-10T22:46:42.587Z,1.90
2023-05-10T22:49:11.472Z,2.00
2023-05-10T22:51:39.399Z,1.80
2023-05-10T22:54:07.972Z,1.80
2023-05-10T22:56:36.056Z,1.90
2023-05-10T22:59:04.232Z,1.80
2023-05-10T23:01:32.900Z,2.00
2023-05-10T23:04:01.181Z,1.90
2023-05-10T23:06:29.671Z,2.30
2023-05-10T23:08:57.736Z,1.70
2023-05-10T23:11:25.703Z,1.90
2023-05-10T23:13:53.662Z,1.90
2023-05-10T23:16:22.014Z,1.90
2023-05-10T23:18:50.267Z,1.80
2023-05-10T23:21:18.714Z,1.70
2023-05-10T23:23:47.009Z,1.90
2023-05-10T23:26:15.015Z,1.90
2023-05-10T23:28:43.028Z,1.90
2023-05-10T23:31:11.112Z,1.80
2023-05-10T23:33:40.307Z,1.90
2023-05-10T23:36:09.113Z,2.00
2023-05-10T23:38:38.596Z,1.70
2023-05-10T23:41:06.670Z,2.00
2023-05-10T23:43:35.151Z,1.90
2023-05-10T23:46:05.513Z,1.90
2023-05-10T23:48:33.538Z,2.00
2023-05-10T23:51:01.427Z,2.00
2023-05-10T23:53:29.607Z,1.80
2023-05-10T23:55:58.594Z,1.90
2023-05-10T23:58:26.686Z,2.10
